createdAt,value
2023-04-17T00:01:36.350Z,100.00
2023-04-17T00:04:08.353Z,100.00
2023-04-17T00:06:40.013Z,100.00
2023-04-17T00:09:12.061Z,100.00
2023-04-17T00:11:43.711Z,100.00
2023-04-17T00:14:15.460Z,100.00
2023-04-17T00:16:47.041Z,100.00
2023-04-17T00:19:18.816Z,100.00
2023-04-17T00:21:50.256Z,100.00
2023-04-17T00:24:21.880Z,100.00
2023-04-17T00:26:53.355Z,100.00
2023-04-17T00:29:24.976Z,100.00
2023-04-17T00:31:56.486Z,100.00
2023-04-17T00:34:27.953Z,100.00
2023-04-17T00:36:59.674Z,100.00
2023-04-17T00:39:31.122Z,100.00
2023-04-17T00:42:02.903Z,100.00
2023-04-17T00:44:34.338Z,100.00
2023-04-17T00:47:05.977Z,100.00
2023-04-17T00:49:37.423Z,100.00
2023-04-17T00:52:08.954Z,100.00
2023-04-17T00:54:40.400Z,100.00
2023-04-17T00:57:12.189Z,100.00
2023-04-17T00:59:43.646Z,100.00
2023-04-17T01:02:15.329Z,100.00
2023-04-17T01:04:46.882Z,100.00
2023-04-17T01:07:18.717Z,100.00
2023-04-17T01:09:50.168Z,100.00
2023-04-17T01:12:22.074Z,100.00
2023-04-17T01:14:53.525Z,100.00
2023-04-17T01:17:25.264Z,100.00
2023-04-17T01:19:56.721Z,100.00
2023-04-17T01:22:28.430Z,100.00
2023-04-17T01:24:59.882Z,100.00
2023-04-17T01:27:31.703Z,100.00
2023-04-17T01:30:03.192Z,100.00
2023-04-17T01:32:35.018Z,100.00
2023-04-17T01:35:06.505Z,100.00
2023-04-17T01:37:38.491Z,100.00
2023-04-17T01:40:09.957Z,100.00
2023-04-17T01:42:41.781Z,100.00
2023-04-17T01:45:13.251Z,100.00
2023-04-17T01:47:45.119Z,100.00
2023-04-17T01:50:16.620Z,100.00
2023-04-17T01:52:48.582Z,100.00
2023-04-17T01:55:20.025Z,100.00
2023-04-17T01:57:51.473Z,100.00
2023-04-17T02:00:22.910Z,100.00
2023-04-17T02:02:54.462Z,100.00
2023-04-17T02:05:25.961Z,100.00
2023-04-17T02:07:57.706Z,100.00
2023-04-17T02:10:29.162Z,100.00
2023-04-17T02:13:00.912Z,100.00
2023-04-17T02:15:32.348Z,100.00
2023-04-17T02:18:04.160Z,100.00
2023-04-17T02:20:35.648Z,100.00
2023-04-17T02:23:07.339Z,100.00
2023-04-17T02:25:38.778Z,100.00
2023-04-17T02:28:10.408Z,100.00
2023-04-17T02:30:41.938Z,100.00
2023-04-17T02:33:13.760Z,100.00
2023-04-17T02:35:45.203Z,100.00
2023-04-17T02:38:16.697Z,100.00
2023-04-17T02:40:48.144Z,100.00
2023-04-17T02:43:19.605Z,100.00
2023-04-17T02:45:51.072Z,100.00
2023-04-17T02:48:22.641Z,100.00
2023-04-17T02:50:54.096Z,100.00
2023-04-17T02:53:25.673Z,100.00
2023-04-17T02:55:57.153Z,100.00
2023-04-17T02:58:28.589Z,100.00
2023-04-17T03:01:00.508Z,100.00
2023-04-17T03:03:32.173Z,100.00
2023-04-17T03:06:03.867Z,100.00
2023-04-17T03:08:35.304Z,100.00
2023-04-17T03:11:07.119Z,100.00
2023-04-17T03:13:38.579Z,100.00
2023-04-17T03:16:10.387Z,100.00
2023-04-17T03:18:41.898Z,100.00
2023-04-17T03:21:13.684Z,100.00
2023-04-17T03:23:45.132Z,100.00
2023-04-17T03:26:17.078Z,100.00
2023-04-17T03:28:48.536Z,100.00
2023-04-17T03:31:21.318Z,100.00
2023-04-17T03:33:53.822Z,100.00
2023-04-17T03:36:25.643Z,100.00
2023-04-17T03:38:57.092Z,100.00
2023-04-17T03:41:29.088Z,100.00
2023-04-17T03:44:00.539Z,100.00
2023-04-17T03:46:32.310Z,100.00
2023-04-17T03:49:03.753Z,100.00
2023-04-17T03:51:35.735Z,100.00
2023-04-17T03:54:07.181Z,100.00
2023-04-17T03:56:38.971Z,100.00
2023-04-17T03:59:10.639Z,100.00
2023-04-17T04:01:43.759Z,100.00
2023-04-17T04:04:16.332Z,100.00
2023-04-17T04:06:48.168Z,100.00
2023-04-17T04:09:19.612Z,100.00
2023-04-17T04:11:51.111Z,100.00
2023-04-17T04:14:22.551Z,100.00
2023-04-17T04:16:54.350Z,100.00
2023-04-17T04:19:25.789Z,100.00
2023-04-17T04:21:57.652Z,100.00
2023-04-17T04:24:29.108Z,100.00
2023-04-17T04:27:01.119Z,100.00
2023-04-17T04:29:32.560Z,100.00
2023-04-17T04:32:04.241Z,100.00
2023-04-17T04:34:35.772Z,100.00
2023-04-17T04:37:07.672Z,100.00
2023-04-17T04:39:39.141Z,100.00
2023-04-17T04:42:10.995Z,100.00
2023-04-17T04:44:42.433Z,100.00
2023-04-17T04:47:14.254Z,100.00
2023-04-17T04:49:45.724Z,100.00
2023-04-17T04:52:17.260Z,100.00
2023-04-17T04:54:48.707Z,100.00
2023-04-17T04:57:20.718Z,100.00
2023-04-17T04:59:52.169Z,100.00
2023-04-17T05:02:24.057Z,100.00
2023-04-17T05:04:55.653Z,100.00
2023-04-17T05:07:27.545Z,100.00
2023-04-17T05:09:59.046Z,100.00
2023-04-17T05:12:30.890Z,100.00
2023-04-17T05:15:02.334Z,100.00
2023-04-17T05:17:34.144Z,100.00
2023-04-17T05:20:05.630Z,100.00
2023-04-17T05:22:37.381Z,100.00
2023-04-17T05:25:08.810Z,100.00
2023-04-17T05:27:40.630Z,100.00
2023-04-17T05:30:12.078Z,100.00
2023-04-17T05:32:43.988Z,100.00
2023-04-17T05:35:15.537Z,100.00
2023-04-17T05:37:47.354Z,100.00
2023-04-17T05:40:18.817Z,100.00
2023-04-17T05:42:50.353Z,100.00
2023-04-17T05:45:24.196Z,100.00
2023-04-17T05:47:57.290Z,100.00
2023-04-17T05:50:28.752Z,100.00
2023-04-17T05:53:00.604Z,100.00
2023-04-17T05:55:32.056Z,100.00
2023-04-17T05:58:10.478Z,100.00
2023-04-17T06:00:53.875Z,100.00
2023-04-17T06:03:25.781Z,100.00
2023-04-17T06:05:57.731Z,100.00
2023-04-17T06:08:29.725Z,100.00
2023-04-17T06:11:01.187Z,100.00
2023-04-17T06:13:33.096Z,100.00
2023-04-17T06:16:04.570Z,100.00
2023-04-17T06:18:36.344Z,100.00
2023-04-17T06:21:07.785Z,100.00
2023-04-17T06:23:39.834Z,100.00
2023-04-17T06:26:11.286Z,100.00
2023-04-17T06:28:43.058Z,100.00
2023-04-17T06:31:14.576Z,100.00
2023-04-17T06:33:46.367Z,100.00
2023-04-17T06:36:17.819Z,100.00
2023-04-17T06:38:49.583Z,100.00
2023-04-17T06:41:21.028Z,100.00
2023-04-17T06:43:52.834Z,100.00
2023-04-17T06:46:24.345Z,100.00
2023-04-17T06:48:56.103Z,100.00
2023-04-17T06:51:27.558Z,100.00
2023-04-17T06:53:59.327Z,100.00
2023-04-17T06:56:30.792Z,100.00
2023-04-17T06:59:03.160Z,100.00
2023-04-17T07:01:34.811Z,100.00
2023-04-17T07:04:06.713Z,100.00
2023-04-17T07:06:38.256Z,100.00
2023-04-17T07:09:10.164Z,100.00
2023-04-17T07:11:41.622Z,100.00
2023-04-17T07:14:13.523Z,100.00
2023-04-17T07:16:45.035Z,100.00
2023-04-17T07:19:16.858Z,100.00
2023-04-17T07:21:48.310Z,100.00
2023-04-17T07:24:20.172Z,100.00
2023-04-17T07:26:51.626Z,100.00
2023-04-17T07:29:23.299Z,100.00
2023-04-17T07:31:54.837Z,100.00
2023-04-17T07:34:26.669Z,100.00
2023-04-17T07:36:58.124Z,100.00
2023-04-17T07:39:29.846Z,100.00
2023-04-17T07:42:01.300Z,100.00
2023-04-17T07:44:33.317Z,100.00
2023-04-17T07:47:04.844Z,100.00
2023-04-17T07:49:36.681Z,100.00
2023-04-17T07:52:08.132Z,100.00
2023-04-17T07:54:40.105Z,100.00
2023-04-17T07:57:11.554Z,100.00
2023-04-17T07:59:43.579Z,100.00
2023-04-17T08:02:15.081Z,100.00
2023-04-17T08:04:46.863Z,100.00
2023-04-17T08:07:18.456Z,100.00
2023-04-17T08:09:49.975Z,100.00
2023-04-17T08:12:21.457Z,100.00
2023-04-17T08:14:52.943Z,100.00
2023-04-17T08:17:24.449Z,100.00
2023-04-17T08:19:55.967Z,100.00
2023-04-17T08:22:27.433Z,100.00
2023-04-17T08:24:59.228Z,100.00
2023-04-17T08:27:30.711Z,100.00
2023-04-17T08:30:02.208Z,99.94
2023-04-17T08:32:33.758Z,100.00
2023-04-17T08:35:05.809Z,100.00
2023-04-17T08:37:37.241Z,99.30
2023-04-17T08:40:09.128Z,98.96
2023-04-17T08:42:40.633Z,97.65
2023-04-17T08:45:12.148Z,97.18
2023-04-17T08:47:43.634Z,99.33
2023-04-17T08:50:15.513Z,99.11
2023-04-17T08:52:46.971Z,98.93
2023-04-17T08:55:18.476Z,100.00
2023-04-17T08:57:49.955Z,100.00
2023-04-17T09:00:21.966Z,99.72
2023-04-17T09:02:53.765Z,99.80
2023-04-17T09:05:25.335Z,95.41
2023-04-17T09:07:56.793Z,93.99
2023-04-17T09:10:28.274Z,94.80
2023-04-17T09:13:00.155Z,92.61
2023-04-17T09:15:31.710Z,92.91
2023-04-17T09:18:03.303Z,92.34
2023-04-17T09:20:34.822Z,91.99
2023-04-17T09:23:06.547Z,91.28
2023-04-17T09:25:38.019Z,88.62
2023-04-17T09:28:09.809Z,89.86
2023-04-17T09:30:41.255Z,91.62
2023-04-17T09:33:13.096Z,91.72
2023-04-17T09:35:44.656Z,91.83
2023-04-17T09:38:16.637Z,90.04
2023-04-17T09:40:48.096Z,90.47
2023-04-17T09:43:19.878Z,90.79
2023-04-17T09:45:51.379Z,89.51
2023-04-17T09:48:23.222Z,87.40
2023-04-17T09:50:54.720Z,88.80
2023-04-17T09:53:26.210Z,85.87
2023-04-17T09:55:57.659Z,86.91
2023-04-17T09:58:29.426Z,88.55
2023-04-17T10:01:00.916Z,85.98
2023-04-17T10:03:35.066Z,86.79
2023-04-17T10:06:08.719Z,81.21
2023-04-17T10:08:40.544Z,80.62
2023-04-17T10:11:11.990Z,80.71
2023-04-17T10:13:43.776Z,77.98
2023-04-17T10:16:15.318Z,78.04
2023-04-17T10:18:47.140Z,76.44
2023-04-17T10:21:18.594Z,74.54
2023-04-17T10:23:50.047Z,76.82
2023-04-17T10:26:21.497Z,77.66
2023-04-17T10:28:52.969Z,80.72
2023-04-17T10:31:24.461Z,81.25
2023-04-17T10:33:55.963Z,79.95
2023-04-17T10:36:27.426Z,80.56
2023-04-17T10:38:59.141Z,80.41
2023-04-17T10:41:30.626Z,70.86
2023-04-17T10:44:02.101Z,69.29
2023-04-17T10:46:33.600Z,69.71
2023-04-17T10:49:05.466Z,68.75
2023-04-17T10:51:36.937Z,70.26
2023-04-17T10:54:08.600Z,71.23
2023-04-17T10:56:40.055Z,71.50
2023-04-17T10:59:12.148Z,70.75
2023-04-17T11:01:43.868Z,71.23
2023-04-17T11:04:15.815Z,71.13
2023-04-17T11:06:47.390Z,71.14
2023-04-17T11:09:19.187Z,70.66
2023-04-17T11:11:50.646Z,73.17
2023-04-17T11:14:22.513Z,74.04
2023-04-17T11:16:54.002Z,75.93
2023-04-17T11:19:26.006Z,76.99
2023-04-17T11:21:57.503Z,74.17
2023-04-17T11:24:29.008Z,73.23
2023-04-17T11:27:00.554Z,65.73
2023-04-17T11:29:32.408Z,64.59
2023-04-17T11:32:03.865Z,66.75
2023-04-17T11:34:35.393Z,67.22
2023-04-17T11:37:06.879Z,67.93
2023-04-17T11:39:38.341Z,67.32
2023-04-17T11:42:09.797Z,69.00
2023-04-17T11:44:41.653Z,68.23
2023-04-17T11:47:13.127Z,66.64
2023-04-17T11:49:44.617Z,64.96
2023-04-17T11:52:17.640Z,65.60
2023-04-17T11:54:49.507Z,66.97
2023-04-17T11:57:20.959Z,66.03
2023-04-17T11:59:52.432Z,67.11
2023-04-17T12:02:23.981Z,64.80
2023-04-17T12:04:57.206Z,67.99
2023-04-17T12:07:28.734Z,68.91
2023-04-17T12:10:00.619Z,70.45
2023-04-17T12:12:32.075Z,67.66
2023-04-17T12:15:03.603Z,66.28
2023-04-17T12:17:35.129Z,67.48
2023-04-17T12:20:06.942Z,68.49
2023-04-17T12:22:38.406Z,68.02
2023-04-17T12:25:10.168Z,68.96
2023-04-17T12:27:41.620Z,67.76
2023-04-17T12:30:13.269Z,68.74
2023-04-17T12:32:44.769Z,70.69
2023-04-17T12:35:16.288Z,72.91
2023-04-17T12:37:47.766Z,72.24
2023-04-17T12:40:20.772Z,77.24
2023-04-17T12:42:53.282Z,77.40
2023-04-17T12:45:25.144Z,80.43
2023-04-17T12:47:56.769Z,80.89
2023-04-17T12:50:28.620Z,82.06
2023-04-17T12:53:00.165Z,82.70
2023-04-17T12:55:38.058Z,81.72
2023-04-17T12:58:09.767Z,82.17
2023-04-17T13:00:41.263Z,81.84
2023-04-17T13:03:12.881Z,82.89
2023-04-17T13:05:45.515Z,83.39
2023-04-17T13:08:17.353Z,83.68
2023-04-17T13:10:48.822Z,83.74
2023-04-17T13:13:20.305Z,84.16
2023-04-17T13:15:51.783Z,84.83
2023-04-17T13:18:23.686Z,84.93
2023-04-17T13:20:55.169Z,86.08
2023-04-17T13:23:26.970Z,85.42
2023-04-17T13:25:58.466Z,86.63
2023-04-17T13:28:29.935Z,86.72
2023-04-17T13:31:01.477Z,89.17
2023-04-17T13:33:33.338Z,90.24
2023-04-17T13:36:04.795Z,92.37
2023-04-17T13:38:36.274Z,92.88
2023-04-17T13:41:07.722Z,94.36
2023-04-17T13:43:39.560Z,93.87
2023-04-17T13:46:11.068Z,97.59
2023-04-17T13:48:42.570Z,98.03
2023-04-17T13:51:14.054Z,98.55
2023-04-17T13:53:45.871Z,97.34
2023-04-17T13:56:17.339Z,96.17
2023-04-17T13:58:48.802Z,94.20
2023-04-17T14:01:20.327Z,95.86
2023-04-17T14:03:51.968Z,96.06
2023-04-17T14:06:23.522Z,95.93
2023-04-17T14:08:55.017Z,95.02
2023-04-17T14:11:26.477Z,96.02
2023-04-17T14:13:58.016Z,94.07
2023-04-17T14:16:29.594Z,94.18
2023-04-17T14:19:09.690Z,95.34
2023-04-17T14:21:44.563Z,96.57
2023-04-17T14:24:16.439Z,97.12
2023-04-17T14:26:47.902Z,96.77
2023-04-17T14:29:19.399Z,97.48
2023-04-17T14:31:50.921Z,97.13
2023-04-17T14:34:22.498Z,96.63
2023-04-17T14:39:25.771Z,100.00
2023-04-17T14:41:58.852Z,100.00
2023-04-17T14:44:31.185Z,100.00
2023-04-17T14:47:02.752Z,100.00
2023-04-17T14:49:34.527Z,100.00
2023-04-17T14:52:05.968Z,100.00
2023-04-17T14:54:37.441Z,100.00
2023-04-17T14:57:08.911Z,100.00
2023-04-17T14:59:40.649Z,100.00
2023-04-17T15:02:12.135Z,100.00
2023-04-17T15:04:44.083Z,100.00
2023-04-17T15:07:15.646Z,100.00
2023-04-17T15:09:47.134Z,100.00
2023-04-17T15:12:18.664Z,100.00
2023-04-17T15:14:50.131Z,100.00
2023-04-17T15:17:21.855Z,100.00
2023-04-17T15:19:53.405Z,100.00
2023-04-17T15:22:25.340Z,100.00
2023-04-17T15:24:56.825Z,100.00
2023-04-17T15:27:28.322Z,100.00
2023-04-17T15:29:59.760Z,100.00
2023-04-17T15:32:32.618Z,100.00
2023-04-17T15:35:04.162Z,100.00
2023-04-17T15:37:35.650Z,100.00
2023-04-17T15:40:07.123Z,100.00
2023-04-17T15:42:38.931Z,100.00
2023-04-17T15:45:10.416Z,100.00
2023-04-17T15:47:42.262Z,100.00
2023-04-17T15:50:13.745Z,100.00
2023-04-17T15:52:45.729Z,100.00
2023-04-17T15:55:17.203Z,100.00
2023-04-17T15:57:48.868Z,100.00
2023-04-17T16:00:20.326Z,100.00
2023-04-17T16:02:52.150Z,100.00
2023-04-17T16:05:24.005Z,100.00
2023-04-17T16:07:55.493Z,100.00
2023-04-17T16:10:26.949Z,100.00
2023-04-17T16:12:58.780Z,100.00
2023-04-17T16:15:30.266Z,100.00
2023-04-17T16:18:02.080Z,100.00
2023-04-17T16:20:33.565Z,100.00
2023-04-17T16:23:05.252Z,100.00
2023-04-17T16:25:36.781Z,100.00
2023-04-17T16:28:08.564Z,100.00
2023-04-17T16:30:40.014Z,100.00
2023-04-17T16:33:11.867Z,100.00
2023-04-17T16:35:43.337Z,100.00
2023-04-17T16:38:15.135Z,100.00
2023-04-17T16:40:46.619Z,100.00
2023-04-17T16:43:18.284Z,100.00
2023-04-17T16:45:49.741Z,100.00
2023-04-17T16:48:21.739Z,100.00
2023-04-17T16:50:53.263Z,100.00
2023-04-17T16:53:24.954Z,100.00
2023-04-17T16:55:57.054Z,100.00
2023-04-17T16:58:28.636Z,100.00
2023-04-17T17:01:00.150Z,100.00
2023-04-17T17:03:32.063Z,100.00
2023-04-17T17:06:03.522Z,100.00
2023-04-17T17:08:35.327Z,100.00
2023-04-17T17:11:06.774Z,100.00
2023-04-17T17:13:38.576Z,100.00
2023-04-17T17:16:10.114Z,100.00
2023-04-17T17:18:41.936Z,100.00
2023-04-17T17:21:13.734Z,100.00
2023-04-17T17:23:45.212Z,100.00
2023-04-17T17:26:16.999Z,100.00
2023-04-17T17:28:48.491Z,100.00
2023-04-17T17:31:20.440Z,100.00
2023-04-17T17:33:53.072Z,100.00
2023-04-17T17:36:25.083Z,100.00
2023-04-17T17:38:56.596Z,100.00
2023-04-17T17:41:28.366Z,100.00
2023-04-17T17:43:59.823Z,100.00
2023-04-17T17:46:31.444Z,100.00
2023-04-17T17:49:03.012Z,100.00
2023-04-17T17:51:34.745Z,100.00
2023-04-17T17:54:06.239Z,100.00
2023-04-17T17:56:38.030Z,100.00
2023-04-17T17:59:19.173Z,100.00
2023-04-17T18:01:50.708Z,100.00
2023-04-17T18:04:22.461Z,100.00
2023-04-17T18:06:54.060Z,100.00
2023-04-17T18:09:25.572Z,100.00
2023-04-17T18:11:57.071Z,100.00
2023-04-17T18:14:28.521Z,100.00
2023-04-17T18:17:00.087Z,100.00
2023-04-17T18:19:31.528Z,100.00
2023-04-17T18:22:03.289Z,100.00
2023-04-17T18:24:34.822Z,100.00
2023-04-17T18:27:06.334Z,100.00
2023-04-17T18:29:37.798Z,100.00
2023-04-17T18:32:09.628Z,100.00
2023-04-17T18:34:41.112Z,100.00
2023-04-17T18:37:12.766Z,100.00
2023-04-17T18:39:44.233Z,100.00
2023-04-17T18:42:15.973Z,100.00
2023-04-17T18:44:47.442Z,100.00
2023-04-17T18:47:19.377Z,100.00
2023-04-17T18:49:50.886Z,100.00
2023-04-17T18:52:22.707Z,100.00
2023-04-17T18:54:54.158Z,100.00
2023-04-17T18:57:26.034Z,100.00
2023-04-17T18:59:57.566Z,100.00
2023-04-17T19:02:29.428Z,100.00
2023-04-17T19:05:00.923Z,100.00
2023-04-17T19:07:32.771Z,100.00
2023-04-17T19:10:04.412Z,100.00
2023-04-17T19:12:36.270Z,100.00
2023-04-17T19:15:07.801Z,100.00
2023-04-17T19:17:39.596Z,100.00
2023-04-17T19:20:11.048Z,100.00
2023-04-17T19:22:42.835Z,100.00
2023-04-17T19:25:14.319Z,100.00
2023-04-17T19:27:46.159Z,100.00
2023-04-17T19:30:17.611Z,100.00
2023-04-17T19:32:49.133Z,100.00
2023-04-17T19:35:20.593Z,100.00
2023-04-17T19:37:52.056Z,100.00
2023-04-17T19:40:25.555Z,100.00
2023-04-17T19:42:57.893Z,100.00
2023-04-17T19:45:29.401Z,100.00
2023-04-17T19:48:01.135Z,100.00
2023-04-17T19:50:32.913Z,100.00
2023-04-17T19:53:04.677Z,100.00
2023-04-17T19:55:36.483Z,100.00
2023-04-17T19:58:07.980Z,100.00
2023-04-17T20:00:39.661Z,100.00
2023-04-17T20:03:11.298Z,100.00
2023-04-17T20:05:43.380Z,100.00
2023-04-17T20:08:14.826Z,100.00
2023-04-17T20:10:46.636Z,100.00
2023-04-17T20:13:18.101Z,100.00
2023-04-17T20:15:49.588Z,100.00
2023-04-17T20:18:21.127Z,100.00
2023-04-17T20:20:52.824Z,100.00
2023-04-17T20:23:24.303Z,100.00
2023-04-17T20:25:56.088Z,100.00
2023-04-17T20:28:27.544Z,100.00
2023-04-17T20:30:59.412Z,100.00
2023-04-17T20:33:30.961Z,100.00
2023-04-17T20:36:02.663Z,100.00
2023-04-17T20:38:34.118Z,100.00
2023-04-17T20:41:05.870Z,100.00
2023-04-17T20:43:37.311Z,100.00
2023-04-17T20:46:09.166Z,100.00
2023-04-17T20:48:40.694Z,100.00
2023-04-17T20:51:12.658Z,100.00
2023-04-17T20:53:44.130Z,100.00
2023-04-17T20:56:15.952Z,100.00
2023-04-17T20:58:47.412Z,100.00
2023-04-17T21:01:19.160Z,100.00
2023-04-17T21:03:50.726Z,100.00
2023-04-17T21:06:22.702Z,100.00
2023-04-17T21:08:54.167Z,100.00
2023-04-17T21:11:26.117Z,100.00
2023-04-17T21:13:57.581Z,100.00
2023-04-17T21:16:29.417Z,100.00
2023-04-17T21:19:00.893Z,100.00
2023-04-17T21:21:32.660Z,100.00
2023-04-17T21:24:04.114Z,100.00
2023-04-17T21:26:35.939Z,100.00
2023-04-17T21:29:07.397Z,100.00
2023-04-17T21:31:39.139Z,100.00
2023-04-17T21:34:10.806Z,100.00
2023-04-17T21:36:42.827Z,100.00
2023-04-17T21:39:14.311Z,100.00
2023-04-17T21:41:46.058Z,100.00
2023-04-17T21:44:17.537Z,100.00
2023-04-17T21:49:44.916Z,100.00
2023-04-17T21:52:16.762Z,100.00
2023-04-17T21:54:48.249Z,100.00
2023-04-17T21:57:20.056Z,100.00
2023-04-17T21:59:51.531Z,100.00
2023-04-17T22:02:23.331Z,100.00
2023-04-17T22:04:54.913Z,100.00
2023-04-17T22:07:26.383Z,100.00
2023-04-17T22:09:57.851Z,100.00
2023-04-17T22:12:29.535Z,100.00
2023-04-17T22:15:00.980Z,100.00
2023-04-17T22:17:32.508Z,100.00
2023-04-17T22:20:04.023Z,100.00
2023-04-17T22:22:35.874Z,100.00
2023-04-17T22:25:07.346Z,100.00
2023-04-17T22:27:39.071Z,100.00
2023-04-17T22:30:10.490Z,100.00
2023-04-17T22:32:42.310Z,100.00
2023-04-17T22:35:13.838Z,100.00
2023-04-17T22:37:45.638Z,100.00
2023-04-17T22:40:17.111Z,100.00
2023-04-17T22:42:48.934Z,100.00
2023-04-17T22:45:20.433Z,100.00
2023-04-17T22:47:51.956Z,100.00
2023-04-17T22:50:23.433Z,100.00
2023-04-17T22:52:54.887Z,100.00
2023-04-17T22:55:26.327Z,100.00
2023-04-17T22:57:58.090Z,100.00
2023-04-17T23:00:29.533Z,100.00
2023-04-17T23:03:01.418Z,100.00
2023-04-17T23:05:33.014Z,100.00
2023-04-17T23:08:04.827Z,100.00
2023-04-17T23:10:36.269Z,100.00
2023-04-17T23:13:07.961Z,100.00
2023-04-17T23:15:39.442Z,100.00
2023-04-17T23:18:11.287Z,100.00
2023-04-17T23:20:42.776Z,100.00
2023-04-17T23:23:14.434Z,100.00
2023-04-17T23:25:45.935Z,100.00
2023-04-17T23:28:17.711Z,100.00
2023-04-17T23:30:49.184Z,100.00
2023-04-17T23:33:20.899Z,100.00
2023-04-17T23:35:52.372Z,100.00
2023-04-17T23:38:24.014Z,100.00
2023-04-17T23:40:55.499Z,100.00
2023-04-17T23:43:26.950Z,100.00
2023-04-17T23:45:58.628Z,100.00
2023-04-17T23:48:30.168Z,100.00
2023-04-17T23:51:01.998Z,100.00
2023-04-17T23:53:33.469Z,100.00
2023-04-17T23:56:05.270Z,100.00
2023-04-17T23:58:36.712Z,100.00
